Allamuchy Township, New Jersey
Current Conditions -  °F | °C
As of 7:53 PM on Tuesday 21 Oct 2014 (Local Time) from KSMQ Reporting Station
Broken Clouds Broken Clouds  
Wind Chill: 57°   Ceiling: 5500
Heat Index: 57°   Visibility: 10mi
Dew Point: 53°   Wind: 0mph
Humidity: 87%   Direction: NA
Pressure: 29.86"   Gusts: NA
Location:  40.8661°N, 74.8361°W
Report Text: KSMQ 212353Z AUTO 00000KT 10SM BKN055 14/12 A2986 RMK AO2 LTG DSNT NE SLP112 60023 T01390117 10206 20139 51022
Loading
Personal Weather Stations






























Interactive Weather Map New forecast layout! Learn more

10-Day Weather Forecast

Advertisements
Track Severe Weather on mobile